CheckWX is a tool to help pilots better visualize weather data.  It is not intended as a substitute for an official pre-flight weather briefing.

05:20:54 UTC

KSYM METAR
Morehead-Rowan County Clyde A Thomas Regional Airport
Morehead, Kentucky, USA
Current

26 mins ago

KSYM 260455Z AUTO 00000KT 10SM FEW034 BKN065 OVC100 21/16 A3006 RMK AO2
Observed
Aug-26 @ 04:55 UTC
Visibility
10 SM
Flight Rules
VFR
Cloud Levels
  • Few at 3,400' AGL
  • Broken at 6,500' AGL
  • Overcast at 10,000' AGL
Temperature
21°C / 70°F
Dewpoint
16°C / 61°F
Humidity
73%
Altimeter
30.06" Hg
Pressure
1017.92 hPa
Previous

31 mins ago

KSYM 260450Z AUTO 00000KT 10SM FEW050 BKN065 OVC095 21/16 A3006 RMK AO2
Observed
Aug-26 @ 04:50 UTC
Visibility
10 SM
Flight Rules
VFR
Cloud Levels
  • Few at 5,000' AGL
  • Broken at 6,500' AGL
  • Overcast at 9,500' AGL
Temperature
21°C / 70°F
Dewpoint
16°C / 61°F
Humidity
73%
Altimeter
30.06" Hg
Pressure
1017.92 hPa
Previous

46 mins ago

KSYM 260435Z AUTO 00000KT 10SM FEW045 SCT050 BKN065 21/16 A3005 RMK AO2
Observed
Aug-26 @ 04:35 UTC
Visibility
10 SM
Flight Rules
VFR
Cloud Levels
  • Few at 4,500' AGL
  • Scattered at 5,000' AGL
  • Broken at 6,500' AGL
Temperature
21°C / 70°F
Dewpoint
16°C / 61°F
Humidity
73%
Altimeter
30.05" Hg
Pressure
1017.62 hPa